createdAt,value
2018-07-01T00:00:28.635Z,22.90
2018-07-01T00:01:02.236Z,22.90
2018-07-01T00:02:09.047Z,22.80
2018-07-01T00:02:43.549Z,22.80
2018-07-01T00:03:17.451Z,22.80
2018-07-01T00:03:51.350Z,22.80
2018-07-01T00:04:25.619Z,22.80
2018-07-01T00:04:59.560Z,22.80
2018-07-01T00:05:33.203Z,22.80
2018-07-01T00:06:06.933Z,22.80
2018-07-01T00:06:41.680Z,22.80
2018-07-01T00:07:15.403Z,22.80
2018-07-01T00:07:49.770Z,22.80
2018-07-01T00:08:24.293Z,22.80
2018-07-01T00:08:57.878Z,22.70
2018-07-01T00:09:31.998Z,22.70
2018-07-01T00:10:06.719Z,22.70
2018-07-01T00:10:40.934Z,22.70
2018-07-01T00:11:15.075Z,22.70
2018-07-01T00:11:49.468Z,22.70
2018-07-01T00:12:23.632Z,22.70
2018-07-01T00:12:57.220Z,22.70
2018-07-01T00:13:30.930Z,22.60
2018-07-01T00:14:05.207Z,22.60
2018-07-01T00:15:12.080Z,22.60
2018-07-01T00:15:47.122Z,22.60
2018-07-01T00:16:20.712Z,22.60
2018-07-01T00:16:54.299Z,22.60
2018-07-01T00:17:28.764Z,22.60
2018-07-01T00:18:02.399Z,22.60
2018-07-01T00:18:36.673Z,22.60
2018-07-01T00:19:11.184Z,22.60
2018-07-01T00:19:44.844Z,22.60
2018-07-01T00:20:19.212Z,22.60
2018-07-01T00:20:53.469Z,22.60
2018-07-01T00:22:00.494Z,22.60
2018-07-01T00:22:34.095Z,22.60
2018-07-01T00:23:08.193Z,22.60
2018-07-01T00:23:41.818Z,22.60
2018-07-01T00:24:15.566Z,22.60
2018-07-01T00:24:50.189Z,22.60
2018-07-01T00:25:23.807Z,22.60
2018-07-01T00:25:57.679Z,22.60
2018-07-01T00:26:31.795Z,22.60
2018-07-01T00:27:06.110Z,22.60
2018-07-01T00:27:39.740Z,22.60
2018-07-01T00:28:13.365Z,22.60
2018-07-01T00:28:48.219Z,22.60
2018-07-01T00:29:21.831Z,22.60
2018-07-01T00:29:55.894Z,22.60
2018-07-01T00:30:29.482Z,22.60
2018-07-01T00:31:36.517Z,22.60
2018-07-01T00:32:10.214Z,22.60
2018-07-01T00:32:46.191Z,22.60
2018-07-01T00:33:19.957Z,22.60
2018-07-01T00:33:53.582Z,22.50
2018-07-01T00:34:27.687Z,22.50
2018-07-01T00:35:01.292Z,22.50
2018-07-01T00:35:35.706Z,22.50
2018-07-01T00:36:09.348Z,22.50
2018-07-01T00:36:44.269Z,22.50
2018-07-01T00:37:18.464Z,22.50
2018-07-01T00:37:52.053Z,22.50
2018-07-01T00:38:25.651Z,22.50
2018-07-01T00:38:59.183Z,22.50
2018-07-01T00:39:33.521Z,22.50
2018-07-01T00:40:07.166Z,22.50
2018-07-01T00:40:41.627Z,22.50
2018-07-01T00:41:15.344Z,22.50
2018-07-01T00:41:49.020Z,22.50
2018-07-01T00:42:56.291Z,22.50
2018-07-01T00:43:29.906Z,22.50
2018-07-01T00:44:04.125Z,22.50
2018-07-01T00:44:37.655Z,22.50
2018-07-01T00:45:12.364Z,22.50
2018-07-01T00:45:45.971Z,22.50
2018-07-01T00:46:19.599Z,22.50
2018-07-01T00:46:53.810Z,22.50
2018-07-01T00:47:27.361Z,22.50
2018-07-01T00:48:01.039Z,22.50
2018-07-01T00:49:08.042Z,22.40
2018-07-01T00:49:41.670Z,22.40
2018-07-01T00:50:16.421Z,22.50
2018-07-01T00:50:50.748Z,22.40
2018-07-01T00:51:25.001Z,22.40
2018-07-01T00:51:59.208Z,22.40
2018-07-01T00:52:32.790Z,22.40
2018-07-01T00:53:06.447Z,22.40
2018-07-01T00:53:41.271Z,22.40
2018-07-01T00:54:15.641Z,22.40
2018-07-01T00:54:49.287Z,22.40
2018-07-01T00:55:24.139Z,22.40
2018-07-01T00:55:57.672Z,22.30
2018-07-01T00:56:32.035Z,22.30
2018-07-01T00:57:05.956Z,22.30
2018-07-01T00:57:40.379Z,22.30
2018-07-01T00:58:14.007Z,22.30
2018-07-01T00:58:48.708Z,22.30
2018-07-01T00:59:22.331Z,22.30
2018-07-01T00:59:55.984Z,22.30
2018-07-01T01:00:32.810Z,22.30
2018-07-01T01:01:06.332Z,22.30
2018-07-01T01:01:39.980Z,22.30
2018-07-01T01:02:13.587Z,22.30
2018-07-01T01:02:47.232Z,22.30
2018-07-01T01:03:20.768Z,22.30
2018-07-01T01:03:54.402Z,22.30
2018-07-01T01:04:28.024Z,22.30
2018-07-01T01:05:01.756Z,22.30
2018-07-01T01:05:36.094Z,22.30
2018-07-01T01:06:09.792Z,22.30
2018-07-01T01:06:43.423Z,22.30
2018-07-01T01:07:17.923Z,22.30
2018-07-01T01:07:51.561Z,22.30
2018-07-01T01:08:25.109Z,22.30
2018-07-01T01:08:58.724Z,22.30
2018-07-01T01:09:32.249Z,22.30
2018-07-01T01:10:06.116Z,22.20
2018-07-01T01:10:39.779Z,22.20
2018-07-01T01:11:14.862Z,22.20
2018-07-01T01:11:49.434Z,22.20
2018-07-01T01:12:23.028Z,22.20
2018-07-01T01:14:05.592Z,22.20
2018-07-01T01:14:39.962Z,22.20
2018-07-01T01:15:14.033Z,22.20
2018-07-01T01:15:47.660Z,22.20
2018-07-01T01:16:21.358Z,22.20
2018-07-01T01:16:55.061Z,22.20
2018-07-01T01:17:29.214Z,22.20
2018-07-01T01:18:04.399Z,22.20
2018-07-01T01:18:38.145Z,22.20
2018-07-01T01:19:12.275Z,22.20
2018-07-01T01:19:47.069Z,22.10
2018-07-01T01:20:20.727Z,22.10
2018-07-01T01:21:27.569Z,22.10
2018-07-01T01:22:01.746Z,22.10
2018-07-01T01:22:35.425Z,22.10
2018-07-01T01:23:09.812Z,22.10
2018-07-01T01:23:43.409Z,22.10
2018-07-01T01:24:17.003Z,22.10
2018-07-01T01:24:50.601Z,22.10
2018-07-01T01:25:24.211Z,22.10
2018-07-01T01:25:58.061Z,22.10
2018-07-01T01:26:32.575Z,22.10
2018-07-01T01:27:06.216Z,22.10
2018-07-01T01:27:39.831Z,22.10
2018-07-01T01:28:13.417Z,22.00
2018-07-01T01:28:48.054Z,22.00
2018-07-01T01:29:22.972Z,22.00
2018-07-01T01:29:57.496Z,22.00
2018-07-01T01:30:31.169Z,22.00
2018-07-01T01:31:05.434Z,22.00
2018-07-01T01:31:39.012Z,22.00
2018-07-01T01:32:12.659Z,22.00
2018-07-01T01:32:46.899Z,22.00
2018-07-01T01:33:22.151Z,22.00
2018-07-01T01:33:55.734Z,22.00
2018-07-01T01:34:29.428Z,22.00
2018-07-01T01:35:03.939Z,22.00
2018-07-01T01:35:38.016Z,22.00
2018-07-01T01:36:14.095Z,22.00
2018-07-01T01:36:48.338Z,21.90
2018-07-01T01:37:22.667Z,21.90
2018-07-01T01:37:57.312Z,21.90
2018-07-01T01:38:33.026Z,21.90
2018-07-01T01:39:13.742Z,21.90
2018-07-01T01:39:48.215Z,21.90
2018-07-01T01:40:25.423Z,21.90
2018-07-01T01:41:04.588Z,21.90
2018-07-01T01:41:43.630Z,21.90
2018-07-01T01:42:38.270Z,21.90
2018-07-01T01:43:18.250Z,21.90
2018-07-01T01:44:07.575Z,21.80
2018-07-01T01:44:47.452Z,21.80
2018-07-01T01:45:29.498Z,21.80
2018-07-01T01:46:09.526Z,21.80
2018-07-01T01:46:51.243Z,21.80
2018-07-01T01:47:29.465Z,21.80
2018-07-01T01:48:09.634Z,21.80
2018-07-01T01:48:48.466Z,21.80
2018-07-01T01:49:31.762Z,21.80
2018-07-01T01:50:15.757Z,21.70
2018-07-01T01:50:54.341Z,21.70
2018-07-01T01:52:02.805Z,21.70
2018-07-01T01:52:46.641Z,21.70
2018-07-01T01:54:25.246Z,21.70
2018-07-01T01:55:49.971Z,21.60
2018-07-01T01:56:33.608Z,21.60
2018-07-01T01:57:16.132Z,21.60
2018-07-01T01:57:55.090Z,21.60
2018-07-01T01:59:26.431Z,21.50
2018-07-01T02:00:05.601Z,21.50
2018-07-01T02:00:48.060Z,21.50
2018-07-01T02:01:27.397Z,21.50
2018-07-01T02:02:15.177Z,21.50
2018-07-01T02:02:59.677Z,21.50
2018-07-01T02:03:45.479Z,21.50
2018-07-01T02:05:21.580Z,21.50
2018-07-01T02:06:01.069Z,21.50
2018-07-01T02:06:39.862Z,21.40
2018-07-01T02:07:18.507Z,21.40
2018-07-01T02:08:40.939Z,21.40
2018-07-01T02:09:19.383Z,21.40
2018-07-01T02:09:53.123Z,21.40
2018-07-01T02:10:26.773Z,21.40
2018-07-01T02:11:00.843Z,21.50
2018-07-01T02:11:38.079Z,21.40
2018-07-01T02:12:13.420Z,21.40
2018-07-01T02:13:20.901Z,21.50
2018-07-01T02:13:58.023Z,21.50
2018-07-01T02:14:36.754Z,21.50
2018-07-01T02:15:14.016Z,21.50
2018-07-01T02:15:51.233Z,21.50
2018-07-01T02:17:04.232Z,21.40
2018-07-01T02:17:42.280Z,21.50
2018-07-01T02:18:16.003Z,21.40
2018-07-01T02:18:49.908Z,21.40
2018-07-01T02:19:23.633Z,21.40
2018-07-01T02:19:58.070Z,21.40
2018-07-01T02:20:34.308Z,21.50
2018-07-01T02:21:08.006Z,21.50
2018-07-01T02:21:42.355Z,21.50
2018-07-01T02:22:19.967Z,21.40
2018-07-01T02:22:56.954Z,21.40
2018-07-01T02:23:36.618Z,21.50
2018-07-01T02:24:15.656Z,21.40
2018-07-01T02:25:59.665Z,21.40
2018-07-01T02:26:33.900Z,21.40
2018-07-01T02:27:07.632Z,21.40
2018-07-01T02:27:43.208Z,21.40
2018-07-01T02:28:16.868Z,21.40
2018-07-01T02:28:50.802Z,21.40
2018-07-01T02:29:24.527Z,21.40
2018-07-01T02:29:59.617Z,21.40
2018-07-01T02:30:33.705Z,21.40
2018-07-01T02:31:07.753Z,21.40
2018-07-01T02:31:41.375Z,21.40
2018-07-01T02:32:15.036Z,21.40
2018-07-01T02:32:49.306Z,21.40
2018-07-01T02:33:57.220Z,21.50
2018-07-01T02:35:38.510Z,21.50
2018-07-01T02:36:12.296Z,21.50
2018-07-01T02:36:45.959Z,21.50
2018-07-01T02:37:19.611Z,21.50
2018-07-01T02:37:53.888Z,21.50
2018-07-01T02:38:27.501Z,21.50
2018-07-01T02:39:01.146Z,21.50
2018-07-01T02:39:34.885Z,21.50
2018-07-01T02:40:08.597Z,21.50
2018-07-01T02:41:15.977Z,21.50
2018-07-01T02:41:50.345Z,21.40
2018-07-01T02:42:23.893Z,21.40
2018-07-01T02:42:57.499Z,21.40
2018-07-01T02:43:31.128Z,21.40
2018-07-01T02:44:04.717Z,21.40
2018-07-01T02:44:38.943Z,21.40
2018-07-01T02:45:12.526Z,21.40
2018-07-01T02:45:47.644Z,21.40
2018-07-01T02:46:22.056Z,21.40
2018-07-01T02:46:56.585Z,21.40
2018-07-01T02:47:30.103Z,21.40
2018-07-01T02:48:03.865Z,21.40
2018-07-01T02:48:38.184Z,21.30
2018-07-01T02:49:13.220Z,21.30
2018-07-01T02:49:47.465Z,21.40
2018-07-01T02:50:21.062Z,21.30
2018-07-01T02:50:55.216Z,21.30
2018-07-01T02:51:28.813Z,21.30
2018-07-01T02:52:02.436Z,21.30
2018-07-01T02:52:36.874Z,21.30
2018-07-01T02:53:10.498Z,21.30
2018-07-01T02:53:44.636Z,21.30
2018-07-01T02:54:18.246Z,21.30
2018-07-01T02:54:51.901Z,21.30
2018-07-01T02:55:25.503Z,21.30
2018-07-01T02:55:59.637Z,21.30
2018-07-01T02:56:33.263Z,21.30
2018-07-01T02:57:06.856Z,21.30
2018-07-01T02:57:40.489Z,21.30
2018-07-01T02:58:14.511Z,21.30
2018-07-01T02:58:48.152Z,21.30
2018-07-01T02:59:21.837Z,21.30
2018-07-01T02:59:56.395Z,21.30
2018-07-01T03:00:30.777Z,21.30
2018-07-01T03:01:06.358Z,21.30
2018-07-01T03:01:41.022Z,21.30
2018-07-01T03:02:14.596Z,21.30
2018-07-01T03:02:49.587Z,21.30
2018-07-01T03:03:23.198Z,21.30
2018-07-01T03:03:57.542Z,21.30
2018-07-01T03:04:31.227Z,21.30
2018-07-01T03:05:05.108Z,21.30
2018-07-01T03:05:39.024Z,21.30
2018-07-01T03:06:12.649Z,21.30
2018-07-01T03:06:46.412Z,21.30
2018-07-01T03:07:21.336Z,21.30
2018-07-01T03:07:56.311Z,21.30
2018-07-01T03:08:29.977Z,21.30
2018-07-01T03:09:04.309Z,21.30
2018-07-01T03:09:37.929Z,21.30
2018-07-01T03:10:12.057Z,21.30
2018-07-01T03:10:45.644Z,21.30
2018-07-01T03:11:20.353Z,21.30
2018-07-01T03:11:53.945Z,21.30
2018-07-01T03:12:28.377Z,21.30
2018-07-01T03:13:02.721Z,21.30
2018-07-01T03:13:36.927Z,21.30
2018-07-01T03:14:10.467Z,21.30
2018-07-01T03:14:45.568Z,21.30
2018-07-01T03:15:21.919Z,21.20
2018-07-01T03:15:56.221Z,21.20
2018-07-01T03:16:29.808Z,21.20
2018-07-01T03:17:03.411Z,21.20
2018-07-01T03:17:36.978Z,21.20
2018-07-01T03:18:12.695Z,21.20
2018-07-01T03:18:46.339Z,21.20
2018-07-01T03:19:20.414Z,21.20
2018-07-01T03:19:54.041Z,21.10
2018-07-01T03:21:01.137Z,21.10
2018-07-01T03:21:34.745Z,21.10
2018-07-01T03:22:08.422Z,21.10
2018-07-01T03:22:41.976Z,21.10
2018-07-01T03:23:16.867Z,21.10
2018-07-01T03:23:50.778Z,21.20
2018-07-01T03:24:26.898Z,21.20
2018-07-01T03:25:01.207Z,21.10
2018-07-01T03:25:35.688Z,21.10
2018-07-01T03:26:09.240Z,21.10
2018-07-01T03:26:44.365Z,21.10
2018-07-01T03:27:17.954Z,21.20
2018-07-01T03:28:24.784Z,21.10
2018-07-01T03:28:58.412Z,21.10
2018-07-01T03:29:32.757Z,21.10
2018-07-01T03:30:06.995Z,21.10
2018-07-01T03:30:41.557Z,21.10
2018-07-01T03:31:15.947Z,21.10
2018-07-01T03:31:49.613Z,21.20
2018-07-01T03:32:23.222Z,21.10
2018-07-01T03:32:57.434Z,21.10
2018-07-01T03:33:32.725Z,21.20
2018-07-01T03:34:39.656Z,21.20
2018-07-01T03:35:14.059Z,21.20
2018-07-01T03:35:48.820Z,21.20
2018-07-01T03:36:57.268Z,21.20
2018-07-01T03:37:30.996Z,21.20
2018-07-01T03:38:05.162Z,21.20
2018-07-01T03:38:39.722Z,21.20
2018-07-01T03:39:14.557Z,21.20
2018-07-01T03:39:48.139Z,21.10
2018-07-01T03:40:21.796Z,21.10
2018-07-01T03:40:55.819Z,21.10
2018-07-01T03:41:29.382Z,21.10
2018-07-01T03:42:02.983Z,21.10
2018-07-01T03:42:37.744Z,21.10
2018-07-01T03:43:12.416Z,21.10
2018-07-01T03:43:46.105Z,21.10
2018-07-01T03:44:19.665Z,21.10
2018-07-01T03:44:53.392Z,21.10
2018-07-01T03:45:27.067Z,21.10
2018-07-01T03:46:00.692Z,21.10
2018-07-01T03:46:34.319Z,21.10
2018-07-01T03:47:08.939Z,21.10
2018-07-01T03:47:42.615Z,21.10
2018-07-01T03:48:16.127Z,21.10
2018-07-01T03:48:49.678Z,21.10
2018-07-01T03:49:24.412Z,21.10
2018-07-01T03:49:58.754Z,21.10
2018-07-01T03:50:34.074Z,21.10
2018-07-01T03:51:08.648Z,21.10
2018-07-01T03:51:42.333Z,21.10
2018-07-01T03:52:16.692Z,21.10
2018-07-01T03:52:50.307Z,21.10
2018-07-01T03:53:24.360Z,21.00
2018-07-01T03:53:57.956Z,21.00
2018-07-01T03:54:31.531Z,21.00
2018-07-01T03:55:05.150Z,21.00
2018-07-01T03:56:11.957Z,21.00
2018-07-01T03:56:45.536Z,21.00
2018-07-01T03:57:20.258Z,21.00
2018-07-01T03:57:54.528Z,21.00
2018-07-01T03:58:28.051Z,21.00
2018-07-01T03:59:01.606Z,21.00
2018-07-01T03:59:35.815Z,21.00
2018-07-01T04:00:10.318Z,21.00
2018-07-01T04:00:43.897Z,21.00
2018-07-01T04:01:17.479Z,21.00
2018-07-01T04:02:24.965Z,21.00
2018-07-01T04:02:59.207Z,20.90
2018-07-01T04:03:33.200Z,21.00
2018-07-01T04:04:07.368Z,20.90
2018-07-01T04:04:41.012Z,20.90
2018-07-01T04:05:14.618Z,20.90
2018-07-01T04:05:48.455Z,20.90
2018-07-01T04:06:22.094Z,20.90
2018-07-01T04:06:55.804Z,20.90
2018-07-01T04:07:29.452Z,20.90
2018-07-01T04:08:03.009Z,20.90
2018-07-01T04:08:37.116Z,20.90
2018-07-01T04:09:12.364Z,20.90
2018-07-01T04:09:45.964Z,20.90
2018-07-01T04:10:19.681Z,20.90
2018-07-01T04:10:53.304Z,20.90
2018-07-01T04:11:27.320Z,20.90
2018-07-01T04:12:02.392Z,20.90
2018-07-01T04:13:09.404Z,20.90
2018-07-01T04:13:43.326Z,20.90
2018-07-01T04:14:16.910Z,20.90
2018-07-01T04:14:50.918Z,20.90
2018-07-01T04:15:25.210Z,20.90
2018-07-01T04:15:59.344Z,20.90
2018-07-01T04:16:33.031Z,20.90
2018-07-01T04:17:40.131Z,20.90
2018-07-01T04:18:14.014Z,20.80
2018-07-01T04:18:47.656Z,20.90
2018-07-01T04:19:26.265Z,20.80
2018-07-01T04:20:00.477Z,20.80
2018-07-01T04:20:34.065Z,20.80
2018-07-01T04:21:08.278Z,20.80
2018-07-01T04:22:16.512Z,20.70
2018-07-01T04:22:50.767Z,20.70
2018-07-01T04:23:24.371Z,20.70
2018-07-01T04:24:31.432Z,20.70
2018-07-01T04:25:05.499Z,20.80
2018-07-01T04:25:39.967Z,20.70
2018-07-01T04:26:13.571Z,20.80
2018-07-01T04:26:47.244Z,20.70
2018-07-01T04:27:21.199Z,20.70
2018-07-01T04:27:56.415Z,20.70
2018-07-01T04:28:30.410Z,20.70
2018-07-01T04:29:06.016Z,20.70
2018-07-01T04:30:13.479Z,20.70
2018-07-01T04:30:47.163Z,20.70
2018-07-01T04:31:20.798Z,20.70
2018-07-01T04:31:54.929Z,20.70
2018-07-01T04:32:29.048Z,20.70
2018-07-01T04:33:02.700Z,20.70
2018-07-01T04:33:37.200Z,20.70
2018-07-01T04:34:11.529Z,20.70
2018-07-01T04:34:45.166Z,20.70
2018-07-01T04:35:18.783Z,20.70
2018-07-01T04:35:52.512Z,20.70
2018-07-01T04:36:26.851Z,20.70
2018-07-01T04:37:00.428Z,20.70
2018-07-01T04:37:34.621Z,20.70
2018-07-01T04:38:08.259Z,20.70
2018-07-01T04:38:42.789Z,20.70
2018-07-01T04:39:16.410Z,20.70
2018-07-01T04:40:24.266Z,20.70
2018-07-01T04:40:58.468Z,20.70
2018-07-01T04:41:33.260Z,20.70
2018-07-01T04:42:06.891Z,20.70
2018-07-01T04:42:41.756Z,20.70
2018-07-01T04:43:15.356Z,20.70
2018-07-01T04:43:49.531Z,20.70
2018-07-01T04:44:23.111Z,20.70
2018-07-01T04:44:56.807Z,20.70
2018-07-01T04:45:30.443Z,20.70
2018-07-01T04:46:04.130Z,20.60
2018-07-01T04:46:37.747Z,20.60
2018-07-01T04:47:12.781Z,20.70
2018-07-01T04:47:46.411Z,20.70
2018-07-01T04:48:19.984Z,20.70
2018-07-01T04:48:54.123Z,20.70
2018-07-01T04:49:27.758Z,20.70
2018-07-01T04:50:02.068Z,20.70
2018-07-01T04:50:36.305Z,20.70
2018-07-01T04:51:10.658Z,20.70
2018-07-01T04:52:18.622Z,20.70
2018-07-01T04:52:52.845Z,20.70
2018-07-01T04:53:27.174Z,20.70
2018-07-01T04:54:00.787Z,20.70
2018-07-01T04:54:34.539Z,20.60
2018-07-01T04:55:09.588Z,20.60
2018-07-01T04:55:43.820Z,20.60
2018-07-01T04:56:17.495Z,20.60
2018-07-01T04:56:51.136Z,20.60
2018-07-01T04:57:25.144Z,20.60
2018-07-01T04:57:58.780Z,20.60
2018-07-01T04:58:32.650Z,20.60
2018-07-01T04:59:06.974Z,20.70
2018-07-01T04:59:40.617Z,20.70
2018-07-01T05:00:14.333Z,20.70
2018-07-01T05:00:48.240Z,20.70
2018-07-01T05:01:22.676Z,20.70
2018-07-01T05:01:56.407Z,20.70
2018-07-01T05:02:30.650Z,20.70
2018-07-01T05:03:04.321Z,20.70
2018-07-01T05:03:37.943Z,20.70
2018-07-01T05:04:11.551Z,20.70
2018-07-01T05:04:48.952Z,20.70
2018-07-01T05:05:23.002Z,20.70
2018-07-01T05:05:57.258Z,20.70
2018-07-01T05:06:31.406Z,20.80
2018-07-01T05:07:05.047Z,20.70
2018-07-01T05:07:38.684Z,20.80
2018-07-01T05:08:12.890Z,20.80
2018-07-01T05:08:47.729Z,20.80
2018-07-01T05:09:21.261Z,20.80
2018-07-01T05:09:54.885Z,20.80
2018-07-01T05:10:29.479Z,20.80
2018-07-01T05:11:03.141Z,20.80
2018-07-01T05:11:36.744Z,20.80
2018-07-01T05:12:10.918Z,20.90
2018-07-01T05:12:45.682Z,20.80
2018-07-01T05:13:19.318Z,20.90
2018-07-01T05:13:53.668Z,20.90
2018-07-01T05:14:27.248Z,20.90
2018-07-01T05:15:02.486Z,20.90
2018-07-01T05:15:36.275Z,20.90
2018-07-01T05:16:09.881Z,20.90
2018-07-01T05:16:43.572Z,20.90
2018-07-01T05:17:17.169Z,20.90
2018-07-01T05:17:50.741Z,20.90
2018-07-01T05:18:26.073Z,20.90
2018-07-01T05:19:00.454Z,20.90
2018-07-01T05:19:35.470Z,20.90
2018-07-01T05:20:09.363Z,20.90
2018-07-01T05:20:44.183Z,20.90
2018-07-01T05:21:19.715Z,20.90
2018-07-01T05:21:54.038Z,20.90
2018-07-01T05:22:28.005Z,20.90
2018-07-01T05:23:02.537Z,20.90
2018-07-01T05:23:36.195Z,20.90
2018-07-01T05:24:09.908Z,20.90
2018-07-01T05:24:43.887Z,20.90
2018-07-01T05:25:17.414Z,20.90
2018-07-01T05:25:51.690Z,21.00
2018-07-01T05:26:25.503Z,21.00
2018-07-01T05:26:59.892Z,21.00
2018-07-01T05:27:33.564Z,21.00
2018-07-01T05:28:07.304Z,21.00
2018-07-01T05:28:41.001Z,21.00
2018-07-01T05:29:14.643Z,21.00
2018-07-01T05:29:48.176Z,21.00
2018-07-01T05:30:22.970Z,21.00
2018-07-01T05:30:56.643Z,21.00
2018-07-01T05:31:31.459Z,21.00
2018-07-01T05:32:05.046Z,21.00
2018-07-01T05:32:38.655Z,21.00
2018-07-01T05:33:12.945Z,21.10
2018-07-01T05:33:46.527Z,21.10
2018-07-01T05:34:20.156Z,21.10
2018-07-01T05:34:53.734Z,21.10
2018-07-01T05:35:27.298Z,21.10
2018-07-01T05:36:02.171Z,21.20
2018-07-01T05:36:36.416Z,21.20
2018-07-01T05:37:10.658Z,21.20
2018-07-01T05:37:44.309Z,21.20
2018-07-01T05:38:17.855Z,21.20
2018-07-01T05:38:51.559Z,21.20
2018-07-01T05:39:25.843Z,21.20
2018-07-01T05:39:59.662Z,21.20
2018-07-01T05:40:33.486Z,21.20
2018-07-01T05:41:08.582Z,21.20
2018-07-01T05:41:43.420Z,21.20
2018-07-01T05:42:17.098Z,21.20
2018-07-01T05:42:50.729Z,21.20
2018-07-01T05:43:24.253Z,21.20
2018-07-01T05:43:58.275Z,21.20
2018-07-01T05:44:33.487Z,21.20
2018-07-01T05:45:08.114Z,21.20
2018-07-01T05:45:41.747Z,21.20
2018-07-01T05:46:15.295Z,21.20
2018-07-01T05:46:49.013Z,21.30
2018-07-01T05:47:22.605Z,21.20
2018-07-01T05:47:56.192Z,21.30
2018-07-01T05:48:30.766Z,21.30
2018-07-01T05:49:05.229Z,21.30
2018-07-01T05:49:38.855Z,21.30
2018-07-01T05:50:12.566Z,21.30
2018-07-01T05:50:46.368Z,21.30
2018-07-01T05:51:19.968Z,21.30
2018-07-01T05:51:53.564Z,21.30
2018-07-01T05:52:27.494Z,21.30
2018-07-01T05:53:01.149Z,21.30
2018-07-01T05:53:35.116Z,21.30
2018-07-01T05:54:09.496Z,21.30
2018-07-01T05:54:43.144Z,21.30
2018-07-01T05:55:17.367Z,21.30
2018-07-01T05:55:51.474Z,21.30
2018-07-01T05:56:25.732Z,21.30
2018-07-01T05:56:59.409Z,21.30
2018-07-01T05:57:33.112Z,21.30
2018-07-01T05:58:06.793Z,21.40
2018-07-01T05:58:40.414Z,21.40
2018-07-01T05:59:14.045Z,21.40
2018-07-01T05:59:47.623Z,21.40
2018-07-01T06:00:21.803Z,21.40
2018-07-01T06:00:55.833Z,21.40
2018-07-01T06:01:30.835Z,21.40
2018-07-01T06:02:05.520Z,21.40
2018-07-01T06:02:39.634Z,21.40
2018-07-01T06:03:13.229Z,21.40
2018-07-01T06:03:46.880Z,21.40
2018-07-01T06:04:20.518Z,21.50
2018-07-01T06:04:54.493Z,21.40
2018-07-01T06:05:29.087Z,21.50
2018-07-01T06:06:02.740Z,21.50
2018-07-01T06:06:36.332Z,21.50
2018-07-01T06:07:10.535Z,21.50
2018-07-01T06:07:44.129Z,21.50
2018-07-01T06:08:18.373Z,21.50
2018-07-01T06:08:53.775Z,21.50
2018-07-01T06:09:27.754Z,21.50
2018-07-01T06:10:02.385Z,21.50
2018-07-01T06:10:36.932Z,21.50
2018-07-01T06:11:12.046Z,21.50
2018-07-01T06:12:18.984Z,21.50
2018-07-01T06:12:53.217Z,21.50
2018-07-01T06:13:27.941Z,21.60
2018-07-01T06:14:01.611Z,21.60
2018-07-01T06:14:35.268Z,21.60
2018-07-01T06:15:08.903Z,21.60
2018-07-01T06:15:44.045Z,21.60
2018-07-01T06:16:18.241Z,21.60
2018-07-01T06:16:52.456Z,21.60
2018-07-01T06:17:26.036Z,21.60
2018-07-01T06:17:59.679Z,21.60
2018-07-01T06:18:33.947Z,21.60
2018-07-01T06:19:08.044Z,21.60
2018-07-01T06:19:41.595Z,21.60
2018-07-01T06:20:15.907Z,21.60
2018-07-01T06:21:23.596Z,21.60
2018-07-01T06:21:58.385Z,21.60
2018-07-01T06:22:32.576Z,21.60
2018-07-01T06:23:07.465Z,21.60
2018-07-01T06:24:16.153Z,21.60
2018-07-01T06:24:49.836Z,21.60
2018-07-01T06:25:25.415Z,21.60
2018-07-01T06:25:59.563Z,21.60
2018-07-01T06:26:34.034Z,21.60
2018-07-01T06:27:08.264Z,21.60
2018-07-01T06:27:41.901Z,21.60
2018-07-01T06:28:15.514Z,21.60
2018-07-01T06:28:49.506Z,21.60
2018-07-01T06:29:23.096Z,21.60
2018-07-01T06:29:56.762Z,21.60
2018-07-01T06:30:31.079Z,21.60
2018-07-01T06:31:04.674Z,21.60
2018-07-01T06:31:38.788Z,21.60
2018-07-01T06:32:13.339Z,21.60
2018-07-01T06:32:47.001Z,21.60
2018-07-01T06:33:20.622Z,21.60
2018-07-01T06:33:54.206Z,21.60
2018-07-01T06:34:29.000Z,21.60
2018-07-01T06:35:02.559Z,21.60
2018-07-01T06:35:36.792Z,21.70
2018-07-01T06:36:10.421Z,21.60
2018-07-01T06:36:44.066Z,21.70
2018-07-01T06:37:18.806Z,21.70
2018-07-01T06:37:52.391Z,21.70
2018-07-01T06:38:26.004Z,21.70
2018-07-01T06:38:59.609Z,21.70
2018-07-01T06:39:33.180Z,21.70
2018-07-01T06:40:08.194Z,21.70
2018-07-01T06:40:42.555Z,21.70
2018-07-01T06:41:16.163Z,21.70
2018-07-01T06:42:23.290Z,21.70
2018-07-01T06:42:56.930Z,21.70
2018-07-01T06:44:04.160Z,21.70
2018-07-01T06:44:37.787Z,21.70
2018-07-01T06:45:11.917Z,21.70
2018-07-01T06:45:46.275Z,21.80
2018-07-01T06:46:19.917Z,21.80
2018-07-01T06:46:53.759Z,21.80
2018-07-01T06:47:27.336Z,21.80
2018-07-01T06:48:00.903Z,21.80
2018-07-01T06:48:34.633Z,21.80
2018-07-01T06:49:09.203Z,21.90
2018-07-01T06:49:44.148Z,21.90
2018-07-01T06:50:19.087Z,21.90
2018-07-01T06:50:54.500Z,21.90
2018-07-01T06:51:28.089Z,21.90
2018-07-01T06:52:01.699Z,21.90
2018-07-01T06:52:36.081Z,21.90
2018-07-01T06:53:10.556Z,22.00
2018-07-01T06:53:44.831Z,22.00
2018-07-01T06:54:18.677Z,22.00
2018-07-01T06:54:53.697Z,22.00
2018-07-01T06:55:27.324Z,22.00
2018-07-01T06:56:00.893Z,22.00
2018-07-01T06:56:34.646Z,22.00
2018-07-01T06:57:08.307Z,22.00
2018-07-01T06:57:41.881Z,22.00
2018-07-01T06:58:15.744Z,22.00
2018-07-01T06:58:49.929Z,22.00
2018-07-01T06:59:23.589Z,22.00
2018-07-01T06:59:57.922Z,22.00
2018-07-01T07:00:32.126Z,22.00
2018-07-01T07:01:05.786Z,22.10
2018-07-01T07:01:39.875Z,22.10
2018-07-01T07:02:14.044Z,22.10
2018-07-01T07:02:47.628Z,22.00
2018-07-01T07:03:21.312Z,22.00
2018-07-01T07:03:55.573Z,22.00
2018-07-01T07:04:29.257Z,22.00
2018-07-01T07:05:03.537Z,22.00
2018-07-01T07:05:37.294Z,22.00
2018-07-01T07:06:10.969Z,22.00
2018-07-01T07:06:44.581Z,22.00
2018-07-01T07:07:18.175Z,22.10
2018-07-01T07:07:51.802Z,22.10
2018-07-01T07:08:58.541Z,22.10
2018-07-01T07:09:32.167Z,22.10
2018-07-01T07:10:06.276Z,22.10
2018-07-01T07:10:39.830Z,22.10
2018-07-01T07:11:13.932Z,22.10
2018-07-01T07:11:47.518Z,22.10
2018-07-01T07:12:21.115Z,22.10
2018-07-01T07:12:54.666Z,22.10
2018-07-01T07:13:28.229Z,22.10
2018-07-01T07:14:02.568Z,22.10
2018-07-01T07:15:11.947Z,22.10
2018-07-01T07:15:45.552Z,22.10
2018-07-01T07:16:19.890Z,22.10
2018-07-01T07:16:54.337Z,22.20
2018-07-01T07:17:28.855Z,22.20
2018-07-01T07:18:02.600Z,22.20
2018-07-01T07:18:38.383Z,22.20
2018-07-01T07:19:12.796Z,22.20
2018-07-01T07:19:46.456Z,22.30
2018-07-01T07:20:20.091Z,22.30
2018-07-01T07:20:54.416Z,22.30
2018-07-01T07:21:27.984Z,22.30
2018-07-01T07:22:01.546Z,22.30
2018-07-01T07:22:35.232Z,22.30
2018-07-01T07:23:08.832Z,22.30
2018-07-01T07:23:43.124Z,22.40
2018-07-01T07:24:16.695Z,22.40
2018-07-01T07:24:50.255Z,22.40
2018-07-01T07:25:23.858Z,22.40
2018-07-01T07:25:57.462Z,22.40
2018-07-01T07:26:31.072Z,22.40
2018-07-01T07:27:04.710Z,22.40
2018-07-01T07:28:11.879Z,22.40
2018-07-01T07:28:45.573Z,22.40
2018-07-01T07:29:19.247Z,22.40
2018-07-01T07:29:53.604Z,22.40
2018-07-01T07:30:27.126Z,22.40
2018-07-01T07:31:00.720Z,22.50
2018-07-01T07:31:34.415Z,22.50
2018-07-01T07:32:08.676Z,22.50
2018-07-01T07:32:42.257Z,22.50
2018-07-01T07:33:15.927Z,22.50
2018-07-01T07:33:50.475Z,22.60
2018-07-01T07:34:24.132Z,22.60
2018-07-01T07:34:57.719Z,22.60
2018-07-01T07:35:32.076Z,22.60
2018-07-01T07:36:05.763Z,22.60
2018-07-01T07:36:40.018Z,22.60
2018-07-01T07:37:13.640Z,22.60
2018-07-01T07:37:47.839Z,22.60
2018-07-01T07:38:21.679Z,22.70
2018-07-01T07:38:55.925Z,22.70
2018-07-01T07:39:30.277Z,22.70
2018-07-01T07:40:03.916Z,22.70
2018-07-01T07:40:37.980Z,22.70
2018-07-01T07:41:11.957Z,22.70
2018-07-01T07:41:45.552Z,22.70
2018-07-01T07:42:19.764Z,22.80
2018-07-01T07:42:54.161Z,22.80
2018-07-01T07:43:27.780Z,22.80
2018-07-01T07:44:01.304Z,22.80
2018-07-01T07:44:35.484Z,22.80
2018-07-01T07:45:09.193Z,22.80
2018-07-01T07:45:42.739Z,22.90
2018-07-01T07:46:16.942Z,22.80
2018-07-01T07:46:51.119Z,22.90
2018-07-01T07:47:24.651Z,22.90
2018-07-01T07:47:58.226Z,22.80
2018-07-01T07:48:31.761Z,22.90
2018-07-01T07:49:05.568Z,22.90
2018-07-01T07:49:39.771Z,22.90